Orel 5 — EMFH — position and weather

sailwx.info

Track history (hours):
 
Tides and Currents Weather Stations Pressure Air Temp Water Temp Dewpoint Dewpoint Depression Visibility Wind Speed Wind Dir Waves Ship Positions

Orel 5

Last reported at 2014-Aug-17 03:33 UTC. Time now 2014-Aug-20 10:50 UTC.
Position N 46°32' E 032°02'.

Length 108 m; draft 3.3 m.

Type: Cargo ship. MMSI: 272059000.

Date/timePositionNaut miles runAvg speedWind from/ knotsBaromVisibWave heightAir tempDewpointWater temp
2014-Aug-17 03:33N 46°32' E 032°02'7 7.5
2014-Aug-17 02:33N 46°35' E 031°52'7 6.9
2014-Aug-17 01:33N 46°36' E 031°42'21 6.0
2014-Aug-16 22:05N 46°24' E 031°17'4 7.9
2014-Aug-16 21:33N 46°21' E 031°13'8 8.1
2014-Aug-16 20:33N 46°14' E 031°07'8 7.9
2014-Aug-16 19:33N 46°08' E 030°59'8 7.9
2014-Aug-16 18:33N 46°01' E 030°53'8 8.1
2014-Aug-16 17:33N 45°54' E 030°47'308 7.0
2014-Aug-14 21:31N 40°57' E 028°59'3 2.7
2014-Aug-14 20:17N 40°58' E 028°55'0 0.0
2014-Aug-14 17:23N 40°58' E 028°55'0 0.0
2014-Aug-14 11:28N 40°58' E 028°55'0 0.0
2014-Aug-14 02:13N 40°58' E 028°55'0 0.1
2014-Aug-14 00:09N 40°58' E 028°55'3 4.9
2014-Aug-13 23:31N 40°56' E 028°57'7 6.9
2014-Aug-13 22:32N 40°51' E 028°51'8 7.4
2014-Aug-13 21:31N 40°50' E 028°41'  
Track history (hours):
 
Tides and Currents Weather Stations Pressure Air Temp Water Temp Dewpoint Dewpoint Depression Visibility Wind Speed Wind Dir Waves Ship Positions

Orel 5

Last reported at 2014-Aug-17 03:33 UTC. Time now 2014-Aug-20 10:50 UTC.
Position N 46°32' E 032°02'.

Length 108 m; draft 3.3 m.

Type: Cargo ship. MMSI: 272059000.

Date/timePositionNaut miles runAvg speedWind from/ knotsBaromVisibWave heightAir tempDewpointWater temp
2014-Aug-17 03:33N 46°32' E 032°02'7 7.5
2014-Aug-17 02:33N 46°35' E 031°52'7 6.9
2014-Aug-17 01:33N 46°36' E 031°42'21 6.0
2014-Aug-16 22:05N 46°24' E 031°17'4 7.9
2014-Aug-16 21:33N 46°21' E 031°13'8 8.1
2014-Aug-16 20:33N 46°14' E 031°07'8 7.9
2014-Aug-16 19:33N 46°08' E 030°59'8 7.9
2014-Aug-16 18:33N 46°01' E 030°53'8 8.1
2014-Aug-16 17:33N 45°54' E 030°47'308 7.0
2014-Aug-14 21:31N 40°57' E 028°59'3 2.7
2014-Aug-14 20:17N 40°58' E 028°55'0 0.0
2014-Aug-14 17:23N 40°58' E 028°55'0 0.0
2014-Aug-14 11:28N 40°58' E 028°55'0 0.0
2014-Aug-14 02:13N 40°58' E 028°55'0 0.1
2014-Aug-14 00:09N 40°58' E 028°55'3 4.9
2014-Aug-13 23:31N 40°56' E 028°57'7 6.9
2014-Aug-13 22:32N 40°51' E 028°51'8 7.4
2014-Aug-13 21:31N 40°50' E 028°41'  

Dump ship's entire track history